createdAt,value
2019-01-25T00:01:07.052Z,-2.30
2019-01-25T00:03:36.728Z,-2.20
2019-01-25T00:06:08.093Z,-2.20
2019-01-25T00:08:37.757Z,-2.20
2019-01-25T00:11:07.477Z,-2.20
2019-01-25T00:13:37.341Z,-2.30
2019-01-25T00:16:07.265Z,-2.30
2019-01-25T00:18:37.377Z,-2.30
2019-01-25T00:21:07.223Z,-2.30
2019-01-25T00:23:36.891Z,-2.40
2019-01-25T00:26:06.627Z,-2.40
2019-01-25T00:28:36.470Z,-2.40
2019-01-25T00:31:06.387Z,-2.40
2019-01-25T00:33:36.474Z,-2.50
2019-01-25T00:36:06.413Z,-2.40
2019-01-25T00:38:36.445Z,-2.30
2019-01-25T00:41:06.516Z,-2.40
2019-01-25T00:43:36.527Z,-2.30
2019-01-25T00:46:06.390Z,-2.30
2019-01-25T00:48:36.441Z,-2.30
2019-01-25T00:51:06.354Z,-2.30
2019-01-25T00:53:36.550Z,-2.30
2019-01-25T00:56:06.522Z,-2.20
2019-01-25T00:58:36.526Z,-2.30
2019-01-25T01:01:06.413Z,-2.20
2019-01-25T01:03:36.382Z,-2.20
2019-01-25T01:06:06.378Z,-2.30
2019-01-25T01:08:36.571Z,-2.30
2019-01-25T01:11:06.414Z,-2.30
2019-01-25T01:13:36.470Z,-2.40
2019-01-25T01:16:06.400Z,-2.40
2019-01-25T01:18:36.656Z,-2.40
2019-01-25T01:21:06.433Z,-2.40
2019-01-25T01:23:36.415Z,-2.40
2019-01-25T01:26:06.415Z,-2.30
2019-01-25T01:28:36.444Z,-2.30
2019-01-25T01:31:06.378Z,-2.30
2019-01-25T01:33:36.455Z,-2.30
2019-01-25T01:36:06.432Z,-2.40
2019-01-25T01:38:36.479Z,-2.40
2019-01-25T01:41:06.408Z,-2.40
2019-01-25T01:43:36.105Z,-2.40
2019-01-25T01:46:05.808Z,-2.40
2019-01-25T01:48:35.628Z,-2.40
2019-01-25T01:51:05.436Z,-2.50
2019-01-25T01:53:35.973Z,-2.40
2019-01-25T01:56:05.773Z,-2.50
2019-01-25T01:58:35.584Z,-2.50
2019-01-25T02:01:05.499Z,-2.50
2019-01-25T02:03:35.457Z,-2.50
2019-01-25T02:06:05.177Z,-2.40
2019-01-25T02:08:34.928Z,-2.40
2019-01-25T02:11:04.571Z,-2.40
2019-01-25T02:13:34.721Z,-2.40
2019-01-25T02:16:04.451Z,-2.40
2019-01-25T02:18:34.145Z,-2.40
2019-01-25T02:21:03.850Z,-2.40
2019-01-25T02:23:33.635Z,-2.30
2019-01-25T02:26:03.507Z,-2.20
2019-01-25T02:28:33.137Z,-2.20
2019-01-25T02:31:02.914Z,-2.20
2019-01-25T02:33:32.730Z,-2.20
2019-01-25T02:36:02.470Z,-2.20
2019-01-25T02:38:32.555Z,-2.20
2019-01-25T02:41:02.497Z,-2.30
2019-01-25T02:43:32.193Z,-2.30
2019-01-25T02:46:01.873Z,-2.40
2019-01-25T02:48:31.718Z,-2.40
2019-01-25T02:51:01.583Z,-2.40
2019-01-25T02:53:31.638Z,-2.40
2019-01-25T02:56:01.494Z,-2.30
2019-01-25T02:58:31.580Z,-2.30
2019-01-25T03:01:01.526Z,-2.20
2019-01-25T03:03:31.777Z,-2.20
2019-01-25T03:06:01.554Z,-2.20
2019-01-25T03:08:31.350Z,-2.30
2019-01-25T03:11:01.090Z,-2.30
2019-01-25T03:13:30.886Z,-2.20
2019-01-25T03:16:00.622Z,-2.20
2019-01-25T03:18:30.642Z,-2.20
2019-01-25T03:21:00.554Z,-2.20
2019-01-25T03:23:30.819Z,-2.20
2019-01-25T03:26:00.598Z,-2.20
2019-01-25T03:28:30.831Z,-2.20
2019-01-25T03:31:00.613Z,-2.20
2019-01-25T03:33:30.875Z,-2.20
2019-01-25T03:36:00.654Z,-2.20
2019-01-25T03:38:30.496Z,-2.20
2019-01-25T03:41:00.160Z,-2.20
2019-01-25T03:43:29.867Z,-2.20
2019-01-25T03:45:59.607Z,-2.30
2019-01-25T03:48:29.677Z,-2.30
2019-01-25T03:50:59.625Z,-2.40
2019-01-25T03:53:29.873Z,-2.40
2019-01-25T03:55:59.682Z,-2.40
2019-01-25T03:58:29.731Z,-2.40
2019-01-25T04:00:59.701Z,-2.40
2019-01-25T04:03:29.389Z,-2.50
2019-01-25T04:05:59.063Z,-2.50
2019-01-25T04:08:28.805Z,-2.50
2019-01-25T04:11:03.939Z,-2.50
2019-01-25T04:13:30.066Z,-2.50
2019-01-25T04:15:59.745Z,-2.50
2019-01-25T04:18:29.869Z,-2.50
2019-01-25T04:20:59.730Z,-2.50
2019-01-25T04:23:29.973Z,-2.50
2019-01-25T04:25:59.850Z,-2.60
2019-01-25T04:28:29.855Z,-2.60
2019-01-25T04:30:59.676Z,-2.60
2019-01-25T04:33:29.941Z,-2.60
2019-01-25T04:35:59.705Z,-2.60
2019-01-25T04:38:29.987Z,-2.70
2019-01-25T04:40:59.745Z,-2.60
2019-01-25T04:43:30.032Z,-2.60
2019-01-25T04:45:59.775Z,-2.60
2019-01-25T04:48:29.762Z,-2.60
2019-01-25T04:51:01.245Z,-2.50
2019-01-25T04:53:32.451Z,-2.50
2019-01-25T04:56:02.285Z,-2.50
2019-01-25T04:58:31.988Z,-2.40
2019-01-25T05:01:08.639Z,-2.40
2019-01-25T05:03:38.353Z,-2.40
2019-01-25T05:06:08.038Z,-2.40
2019-01-25T05:08:37.885Z,-2.30
2019-01-25T05:11:19.435Z,-2.40
2019-01-25T05:13:43.331Z,-2.40
2019-01-25T05:16:13.773Z,-2.40
2019-01-25T05:18:43.732Z,-2.40
2019-01-25T05:21:21.334Z,-2.40
2019-01-25T05:23:51.006Z,-2.40
2019-01-25T05:26:21.985Z,-2.40
2019-01-25T05:28:51.758Z,-2.50
2019-01-25T05:31:21.997Z,-2.40
2019-01-25T05:33:51.806Z,-2.40
2019-01-25T05:36:21.963Z,-2.40
2019-01-25T05:38:51.721Z,-2.40
2019-01-25T05:41:28.269Z,-2.50
2019-01-25T05:43:53.783Z,-2.50
2019-01-25T05:46:23.678Z,-2.50
2019-01-25T05:48:53.351Z,-2.50
2019-01-25T05:51:23.161Z,-2.50
2019-01-25T05:53:52.947Z,-2.60
2019-01-25T05:56:22.960Z,-2.60
2019-01-25T05:58:52.745Z,-2.60
2019-01-25T06:01:22.470Z,-2.60
2019-01-25T06:03:52.215Z,-2.60
2019-01-25T06:06:22.132Z,-2.50
2019-01-25T06:08:51.896Z,-2.60
2019-01-25T06:11:22.073Z,-2.50
2019-01-25T06:13:51.779Z,-2.50
2019-01-25T06:16:22.108Z,-2.50
2019-01-25T06:18:51.847Z,-2.50
2019-01-25T06:21:22.153Z,-2.50
2019-01-25T06:23:52.239Z,-2.50
2019-01-25T06:26:22.181Z,-2.50
2019-01-25T06:28:51.867Z,-2.50
2019-01-25T06:31:22.224Z,-2.50
2019-01-25T06:33:51.901Z,-2.50
2019-01-25T06:36:22.187Z,-2.50
2019-01-25T06:38:51.973Z,-2.60
2019-01-25T06:41:22.118Z,-2.60
2019-01-25T06:43:51.857Z,-2.60
2019-01-25T06:46:22.232Z,-2.60
2019-01-25T06:48:51.897Z,-2.70
2019-01-25T06:51:22.157Z,-2.70
2019-01-25T06:53:51.878Z,-2.60
2019-01-25T06:56:22.256Z,-2.60
2019-01-25T06:58:53.668Z,-2.70
2019-01-25T07:01:30.542Z,-2.70
2019-01-25T07:04:00.213Z,-2.70
2019-01-25T07:06:30.070Z,-2.70
2019-01-25T07:08:59.898Z,-2.70
2019-01-25T07:11:29.989Z,-2.70
2019-01-25T07:13:59.905Z,-2.70
2019-01-25T07:16:30.001Z,-2.70
2019-01-25T07:18:59.927Z,-2.70
2019-01-25T07:21:30.173Z,-2.80
2019-01-25T07:23:59.961Z,-2.80
2019-01-25T07:26:29.942Z,-2.80
2019-01-25T07:28:59.931Z,-2.80
2019-01-25T07:31:30.109Z,-2.80
2019-01-25T07:33:59.948Z,-2.80
2019-01-25T07:36:30.061Z,-2.70
2019-01-25T07:38:59.946Z,-2.70
2019-01-25T07:41:29.678Z,-2.70
2019-01-25T07:43:59.413Z,-2.60
2019-01-25T07:46:29.198Z,-2.60
2019-01-25T07:48:59.048Z,-2.60
2019-01-25T07:51:29.055Z,-2.60
2019-01-25T07:53:58.955Z,-2.60
2019-01-25T07:56:29.083Z,-2.60
2019-01-25T07:58:58.960Z,-2.50
2019-01-25T08:01:29.020Z,-2.50
2019-01-25T08:03:58.638Z,-2.50
2019-01-25T08:06:28.387Z,-2.50
2019-01-25T08:08:58.141Z,-2.50
2019-01-25T08:11:28.211Z,-2.50
2019-01-25T08:13:58.028Z,-2.50
2019-01-25T08:16:27.939Z,-2.50
2019-01-25T08:18:57.941Z,-2.50
2019-01-25T08:21:28.099Z,-2.50
2019-01-25T08:23:57.979Z,-2.40
2019-01-25T08:26:28.378Z,-2.50
2019-01-25T08:29:00.646Z,-2.50
2019-01-25T08:31:30.318Z,-2.50
2019-01-25T08:34:00.114Z,-2.50
2019-01-25T08:36:30.318Z,-2.60
2019-01-25T08:39:00.162Z,-2.60
2019-01-25T08:41:30.120Z,-2.60
2019-01-25T08:44:00.083Z,-2.50
2019-01-25T08:46:30.128Z,-2.50
2019-01-25T08:49:00.114Z,-2.50
2019-01-25T08:51:30.146Z,-2.40
2019-01-25T08:54:00.142Z,-2.50
2019-01-25T08:56:30.214Z,-2.50
2019-01-25T08:59:00.227Z,-2.50
2019-01-25T09:01:30.222Z,-2.50
2019-01-25T09:04:00.216Z,-2.50
2019-01-25T09:06:30.219Z,-2.40
2019-01-25T09:09:00.133Z,-2.30
2019-01-25T09:11:30.182Z,-2.10
2019-01-25T09:14:00.166Z,-1.90
2019-01-25T09:16:30.249Z,-1.80
2019-01-25T09:19:00.209Z,-1.80
2019-01-25T09:21:30.235Z,-1.80
2019-01-25T09:24:00.250Z,-1.80
2019-01-25T09:26:30.204Z,-1.80
2019-01-25T09:29:00.151Z,-1.80
2019-01-25T09:31:30.200Z,-1.80
2019-01-25T09:34:00.253Z,-1.80
2019-01-25T09:36:30.257Z,-1.80
2019-01-25T09:39:00.172Z,-1.80
2019-01-25T09:41:30.429Z,-1.80
2019-01-25T09:44:00.232Z,-1.80
2019-01-25T09:46:30.280Z,-1.90
2019-01-25T09:49:00.193Z,-1.90
2019-01-25T09:51:30.221Z,-1.90
2019-01-25T09:54:00.209Z,-1.90
2019-01-25T09:56:30.275Z,-1.90
2019-01-25T09:59:00.199Z,-2.00
2019-01-25T10:01:30.459Z,-1.90
2019-01-25T10:04:00.293Z,-1.90
2019-01-25T10:06:30.401Z,-1.90
2019-01-25T10:09:00.212Z,-2.00
2019-01-25T10:11:30.173Z,-1.90
2019-01-25T10:14:00.199Z,-1.80
2019-01-25T10:16:30.154Z,-1.70
2019-01-25T10:18:59.857Z,-1.60
2019-01-25T10:21:29.593Z,-1.60
2019-01-25T10:23:59.225Z,-1.70
2019-01-25T10:26:29.185Z,-1.60
2019-01-25T10:28:59.177Z,-1.60
2019-01-25T10:31:29.439Z,-1.50
2019-01-25T10:33:59.211Z,-1.50
2019-01-25T10:36:29.454Z,-1.70
2019-01-25T10:38:59.186Z,-1.60
2019-01-25T10:41:28.839Z,-1.50
2019-01-25T10:43:58.515Z,-1.40
2019-01-25T10:46:28.335Z,-1.40
2019-01-25T10:48:58.238Z,-1.40
2019-01-25T10:51:28.250Z,-1.40
2019-01-25T10:53:58.276Z,-1.40
2019-01-25T10:56:28.358Z,-1.40
2019-01-25T10:58:58.228Z,-1.40
2019-01-25T11:01:28.296Z,-1.50
2019-01-25T11:03:58.265Z,-1.50
2019-01-25T11:06:28.230Z,-1.50
2019-01-25T11:08:58.202Z,-1.50
2019-01-25T11:11:28.470Z,-1.40
2019-01-25T11:13:58.286Z,-1.40
2019-01-25T11:16:28.318Z,-1.50
2019-01-25T11:18:58.240Z,-1.50
2019-01-25T11:21:27.904Z,-2.40
2019-01-25T11:23:57.612Z,-1.30
2019-01-25T11:26:27.426Z,-1.30
2019-01-25T11:28:57.319Z,-1.40
2019-01-25T11:31:27.439Z,-1.40
2019-01-25T11:33:57.332Z,-1.30
2019-01-25T11:36:27.289Z,-1.20
2019-01-25T11:38:57.239Z,-1.30
2019-01-25T11:41:26.945Z,-1.30
2019-01-25T11:43:56.627Z,-1.30
2019-01-25T11:46:26.480Z,-1.30
2019-01-25T11:48:56.309Z,-0.90
2019-01-25T11:51:26.589Z,-0.90
2019-01-25T11:53:56.333Z,-1.00
2019-01-25T11:56:26.394Z,-0.90
2019-01-25T11:58:56.329Z,-0.80
2019-01-25T12:01:26.572Z,-0.60
2019-01-25T12:03:56.333Z,-0.60
2019-01-25T12:06:26.395Z,-0.60
2019-01-25T12:08:56.381Z,-0.40
2019-01-25T12:11:26.451Z,-0.40
2019-01-25T12:13:56.349Z,-0.40
2019-01-25T12:16:26.075Z,-0.40
2019-01-25T12:18:55.817Z,-0.30
2019-01-25T12:21:25.589Z,-0.30
2019-01-25T12:23:55.376Z,-0.90
2019-01-25T12:26:26.808Z,-0.20
2019-01-25T12:28:56.418Z,-0.10
2019-01-25T12:31:26.396Z,0.00
2019-01-25T12:33:56.336Z,-0.30
2019-01-25T12:36:26.072Z,-0.50
2019-01-25T12:38:55.825Z,-0.60
2019-01-25T12:41:25.636Z,-0.50
2019-01-25T12:43:55.400Z,-0.20
2019-01-25T12:46:25.650Z,0.00
2019-01-25T12:48:55.413Z,0.00
2019-01-25T12:51:25.650Z,0.00
2019-01-25T12:53:55.408Z,-0.20
2019-01-25T12:56:25.638Z,0.00
2019-01-25T12:58:55.420Z,0.10
2019-01-25T13:01:25.654Z,0.10
2019-01-25T13:03:55.414Z,0.00
2019-01-25T13:06:25.640Z,0.00
2019-01-25T13:08:55.443Z,-0.10
2019-01-25T13:11:25.414Z,-0.10
2019-01-25T13:13:55.386Z,-0.20
2019-01-25T13:16:25.094Z,-0.30
2019-01-25T13:18:54.776Z,-0.30
2019-01-25T13:21:24.666Z,-0.50
2019-01-25T13:23:54.451Z,-0.70
2019-01-25T13:26:24.671Z,-0.90
2019-01-25T13:28:54.453Z,-1.10
2019-01-25T13:31:24.513Z,-1.10
2019-01-25T13:33:54.453Z,-1.00
2019-01-25T13:36:24.521Z,-0.90
2019-01-25T13:38:54.471Z,-0.60
2019-01-25T13:41:27.348Z,-0.30
2019-01-25T13:43:56.482Z,0.20
2019-01-25T13:46:26.509Z,0.40
2019-01-25T13:48:56.431Z,0.40
2019-01-25T13:51:26.048Z,0.20
2019-01-25T13:53:55.690Z,0.00
2019-01-25T13:56:25.721Z,-0.20
2019-01-25T13:58:55.518Z,-0.30
2019-01-25T14:01:25.773Z,-0.50
2019-01-25T14:03:55.515Z,-0.60
2019-01-25T14:06:25.143Z,-0.70
2019-01-25T14:08:54.818Z,-0.80
2019-01-25T14:11:24.748Z,-0.80
2019-01-25T14:13:54.530Z,-0.80
2019-01-25T14:16:24.165Z,-0.80
2019-01-25T14:18:53.828Z,-0.80
2019-01-25T14:21:23.759Z,-0.80
2019-01-25T14:23:53.542Z,-0.80
2019-01-25T14:26:23.236Z,-0.80
2019-01-25T14:28:52.838Z,-0.90
2019-01-25T14:31:22.882Z,-0.90
2019-01-25T14:33:52.614Z,-0.90
2019-01-25T14:36:22.759Z,-1.00
2019-01-25T14:38:52.690Z,-1.00
2019-01-25T14:41:22.824Z,-1.10
2019-01-25T14:43:54.597Z,-1.10
2019-01-25T14:46:24.165Z,-1.20
2019-01-25T14:48:53.867Z,-1.20
2019-01-25T14:51:23.835Z,-1.20
2019-01-25T14:53:53.699Z,-1.30
2019-01-25T14:56:23.658Z,-1.20
2019-01-25T14:58:53.459Z,-1.10
2019-01-25T15:01:23.234Z,-1.00
2019-01-25T15:03:52.939Z,-1.00
2019-01-25T15:06:22.970Z,-1.10
2019-01-25T15:08:52.674Z,-1.20
2019-01-25T15:11:22.852Z,-1.20
2019-01-25T15:13:52.673Z,-1.30
2019-01-25T15:16:23.044Z,-1.30
2019-01-25T15:18:52.754Z,-1.30
2019-01-25T15:21:22.967Z,-1.30
2019-01-25T15:23:52.749Z,-1.40
2019-01-25T15:26:23.009Z,-1.30
2019-01-25T15:28:52.801Z,-1.30
2019-01-25T15:31:22.986Z,-1.30
2019-01-25T15:33:52.709Z,-1.30
2019-01-25T15:36:23.041Z,-1.30
2019-01-25T15:38:52.737Z,-1.30
2019-01-25T15:41:22.902Z,-1.30
2019-01-25T15:43:52.771Z,-1.30
2019-01-25T15:46:22.864Z,-1.30
2019-01-25T15:48:52.759Z,-1.30
2019-01-25T15:51:22.898Z,-1.30
2019-01-25T15:53:52.805Z,-1.40
2019-01-25T15:56:22.966Z,-1.40
2019-01-25T15:58:52.762Z,-1.40
2019-01-25T16:01:23.150Z,-1.40
2019-01-25T16:03:52.814Z,-1.40
2019-01-25T16:06:23.372Z,-1.40
2019-01-25T16:08:53.144Z,-1.40
2019-01-25T16:11:23.178Z,-1.40
2019-01-25T16:13:52.914Z,-1.40
2019-01-25T16:16:24.005Z,-1.40
2019-01-25T16:18:53.878Z,-1.40
2019-01-25T16:21:23.862Z,-1.50
2019-01-25T16:23:53.844Z,-1.50
2019-01-25T16:26:23.835Z,-1.50
2019-01-25T16:28:53.819Z,-1.40
2019-01-25T16:31:23.871Z,-1.40
2019-01-25T16:33:53.859Z,-1.40
2019-01-25T16:36:23.892Z,-1.40
2019-01-25T16:38:53.847Z,-1.40
2019-01-25T16:41:23.856Z,-1.40
2019-01-25T16:43:53.823Z,-1.40
2019-01-25T16:46:23.861Z,-1.40
2019-01-25T16:48:53.807Z,-1.40
2019-01-25T16:51:24.015Z,-1.40
2019-01-25T16:53:53.887Z,-1.40
2019-01-25T16:56:24.004Z,-1.40
2019-01-25T16:58:53.923Z,-1.40
2019-01-25T17:01:24.007Z,-1.40
2019-01-25T17:03:53.991Z,-1.40
2019-01-25T17:06:24.077Z,-1.40
2019-01-25T17:08:54.138Z,-1.40
2019-01-25T17:11:24.114Z,-1.40
2019-01-25T17:13:53.966Z,-1.40
2019-01-25T17:16:23.925Z,-1.40
2019-01-25T17:18:53.954Z,-1.40
2019-01-25T17:21:23.708Z,-1.30
2019-01-25T17:23:53.437Z,-1.30
2019-01-25T17:26:23.189Z,-1.30
2019-01-25T17:28:52.938Z,-1.30
2019-01-25T17:31:23.128Z,-1.30
2019-01-25T17:33:53.006Z,-1.30
2019-01-25T17:36:23.249Z,-1.20
2019-01-25T17:38:53.086Z,-1.20
2019-01-25T17:41:23.347Z,-1.20
2019-01-25T17:43:53.106Z,-1.20
2019-01-25T17:46:23.386Z,-1.20
2019-01-25T17:48:53.056Z,-1.20
2019-01-25T17:51:23.235Z,-1.20
2019-01-25T17:53:52.956Z,-1.30
2019-01-25T17:56:23.218Z,-1.30
2019-01-25T17:58:52.974Z,-1.30
2019-01-25T18:01:23.421Z,-1.30
2019-01-25T18:03:53.150Z,-1.20
2019-01-25T18:06:23.314Z,-1.20
2019-01-25T18:08:53.124Z,-1.20
2019-01-25T18:11:23.196Z,-1.20
2019-01-25T18:13:53.026Z,-1.20
2019-01-25T18:16:23.237Z,-1.20
2019-01-25T18:18:53.063Z,-1.20
2019-01-25T18:21:23.220Z,-1.20
2019-01-25T18:23:53.091Z,-1.20
2019-01-25T18:26:23.285Z,-1.20
2019-01-25T18:28:54.667Z,-1.20
2019-01-25T18:31:26.381Z,-1.20
2019-01-25T18:33:56.317Z,-1.20
2019-01-25T18:36:26.261Z,-1.20
2019-01-25T18:38:56.135Z,-1.20
2019-01-25T18:41:26.107Z,-1.20
2019-01-25T18:43:56.018Z,-1.20
2019-01-25T18:46:25.742Z,-1.20
2019-01-25T18:48:55.411Z,-1.20
2019-01-25T18:51:25.218Z,-1.20
2019-01-25T18:53:55.010Z,-1.20
2019-01-25T18:56:25.266Z,-1.20
2019-01-25T18:58:55.056Z,-1.20
2019-01-25T19:01:25.098Z,-1.20
2019-01-25T19:03:55.038Z,-1.30
2019-01-25T19:06:25.024Z,-1.30
2019-01-25T19:08:55.001Z,-1.30
2019-01-25T19:11:25.392Z,-1.30
2019-01-25T19:13:55.262Z,-1.30
2019-01-25T19:16:25.307Z,-1.30
2019-01-25T19:18:55.183Z,-1.30
2019-01-25T19:21:25.247Z,-1.30
2019-01-25T19:23:55.121Z,-1.30
2019-01-25T19:26:25.384Z,-1.30
2019-01-25T19:28:55.268Z,-1.30
2019-01-25T19:31:25.378Z,-1.30
2019-01-25T19:33:55.125Z,-1.30
2019-01-25T19:36:25.101Z,-1.30
2019-01-25T19:38:55.103Z,-1.30
2019-01-25T19:41:25.363Z,-1.30
2019-01-25T19:43:55.142Z,-1.30
2019-01-25T19:46:25.381Z,-1.30
2019-01-25T19:48:55.160Z,-1.20
2019-01-25T19:51:25.419Z,-1.20
2019-01-25T19:53:55.233Z,-1.20
2019-01-25T19:56:25.253Z,-1.20
2019-01-25T19:58:55.155Z,-1.20
2019-01-25T20:01:25.361Z,-1.30
2019-01-25T20:03:55.187Z,-1.30
2019-01-25T20:06:25.239Z,-1.30
2019-01-25T20:08:55.238Z,-1.40
2019-01-25T20:11:25.406Z,-1.40
2019-01-25T20:13:55.303Z,-1.50
2019-01-25T20:16:25.181Z,-1.50
2019-01-25T20:18:54.801Z,-1.60
2019-01-25T20:21:24.609Z,-1.60
2019-01-25T20:23:54.311Z,-1.70
2019-01-25T20:26:24.258Z,-1.70
2019-01-25T20:28:54.343Z,-1.70
2019-01-25T20:31:24.445Z,-1.70
2019-01-25T20:33:54.268Z,-1.70
2019-01-25T20:36:24.145Z,-1.80
2019-01-25T20:38:54.223Z,-1.80
2019-01-25T20:41:24.252Z,-1.80
2019-01-25T20:43:54.214Z,-1.70
2019-01-25T20:46:23.893Z,-1.70
2019-01-25T20:48:53.699Z,-1.70
2019-01-25T20:51:23.560Z,-1.70
2019-01-25T20:53:53.310Z,-1.60
2019-01-25T20:56:23.460Z,-1.70
2019-01-25T20:58:53.234Z,-1.70
2019-01-25T21:01:23.396Z,-1.70
2019-01-25T21:03:53.311Z,-1.70
2019-01-25T21:06:23.548Z,-1.80
2019-01-25T21:08:53.318Z,-1.80
2019-01-25T21:11:23.518Z,-1.80
2019-01-25T21:13:53.312Z,-1.80
2019-01-25T21:16:23.446Z,-1.80
2019-01-25T21:18:53.249Z,-1.80
2019-01-25T21:21:23.579Z,-1.80
2019-01-25T21:23:53.295Z,-1.80
2019-01-25T21:26:23.522Z,-1.90
2019-01-25T21:28:53.296Z,-1.90
2019-01-25T21:31:23.651Z,-1.90
2019-01-25T21:33:53.384Z,-1.80
2019-01-25T21:36:23.573Z,-1.80
2019-01-25T21:38:53.333Z,-1.80
2019-01-25T21:41:23.426Z,-1.80
2019-01-25T21:43:53.295Z,-1.90
2019-01-25T21:46:23.589Z,-1.90
2019-01-25T21:48:53.305Z,-1.90
2019-01-25T21:51:23.614Z,-1.90
2019-01-25T21:53:53.413Z,-1.90
2019-01-25T21:56:23.608Z,-2.00
2019-01-25T21:58:53.385Z,-1.90
2019-01-25T22:01:23.643Z,-1.90
2019-01-25T22:03:53.340Z,-1.90
2019-01-25T22:06:23.739Z,-1.90
2019-01-25T22:08:53.678Z,-1.90
2019-01-25T22:11:23.753Z,-1.90
2019-01-25T22:13:53.483Z,-1.90
2019-01-25T22:16:23.635Z,-1.90
2019-01-25T22:18:53.437Z,-2.00
2019-01-25T22:21:23.606Z,-2.00
2019-01-25T22:23:53.453Z,-2.00
2019-01-25T22:26:23.580Z,-2.00
2019-01-25T22:28:53.373Z,-2.00
2019-01-25T22:31:23.706Z,-2.00
2019-01-25T22:33:53.424Z,-2.00
2019-01-25T22:36:23.590Z,-2.00
2019-01-25T22:38:53.445Z,-2.00
2019-01-25T22:41:23.585Z,-2.00
2019-01-25T22:43:53.457Z,-2.00
2019-01-25T22:46:23.640Z,-2.00
2019-01-25T22:48:53.652Z,-2.00
2019-01-25T22:51:23.713Z,-2.00
2019-01-25T22:53:53.423Z,-1.90
2019-01-25T22:56:23.778Z,-1.90
2019-01-25T22:58:53.577Z,-1.90
2019-01-25T23:01:24.747Z,-1.80
2019-01-25T23:04:00.568Z,-1.90
2019-01-25T23:06:36.666Z,-1.80
2019-01-25T23:09:12.606Z,-1.80
2019-01-25T23:11:42.474Z,-1.80
2019-01-25T23:14:12.465Z,-1.80
2019-01-25T23:16:42.475Z,-1.80
2019-01-25T23:19:12.471Z,-1.80
2019-01-25T23:21:42.544Z,-1.80
2019-01-25T23:24:12.513Z,-1.70
2019-01-25T23:26:42.462Z,-1.70
2019-01-25T23:29:12.387Z,-1.70
2019-01-25T23:31:42.092Z,-1.70
2019-01-25T23:34:11.772Z,-1.70
2019-01-25T23:36:41.683Z,-1.70
2019-01-25T23:39:11.700Z,-1.70
2019-01-25T23:41:41.708Z,-1.70
2019-01-25T23:44:11.522Z,-1.60
2019-01-25T23:46:41.535Z,-1.60
2019-01-25T23:49:11.467Z,-1.60
2019-01-25T23:51:41.454Z,-1.60
2019-01-25T23:54:11.487Z,-1.60
2019-01-25T23:56:41.762Z,-1.60
2019-01-25T23:59:11.526Z,-1.60
